ZM-0021 weather

Bwanda Airport
Bwanda, Southern Province, Zambia

Public forecast

Using degrees Celsius for public forecast. Weather courtesy of forecast.io.

Closest aviation weather report (METAR) to Bwanda Airport

Report is more than 6 hours old.

Closest report is Choma Airport, 48.6 nm (90.0 km) SSW. Retrieved 2010/07/23 06:00 UTC (10 years ago):

FLCH 230600Z 00903KT CAVOK 12/09

Closest aviation forecast (TAF) to Bwanda Airport

Forecast is more than 12 hours old.

Closest forecast is Kenneth Kaunda International Airport, 80.6 nm (149.3 km) ENE. Retrieved 2020/07/22 18:00 UTC (12 days ago):

TAF FLKK 221600Z 2218/2324 13005KT CAVOK BECMG 2306/2308 09010G15KT BECMG 2311/2313 9999 SCT040 BKN080